Historique des mesures à Cassis (13260), France
Quotidien Résumé Novembre 11, 2017 Unités:  Métrique    US   Métrique/US
« Précédent (Jour)
Suivant (Jour) »
Quotidien Hebdomadaire Mensuel Annuel Période au choix
  Maximum: Minimum: Moyenne:
Température: TemperatureC °C 11.8 °C 13.7 °C
Point de rosée: DewpointC °C 4.7 °C 5.4 °C
Humidité: Humidity % 45 % 54 %
Vitesse du vent: 0 km/h 0 km/h 19.2 km/h
Rafales: 0 km/h - -
Vent:- - SSW
Pression: PressurehPa hPa 1011.7 hPa -
Précipitations: 0.0 mm    
Historical Graphs
 
 
Mesures pour : Novembre 11, 2017
Heure Temperature Point de rosée Pression Vent Vitesse du vent Rafales Humidité Pluie (par heure) Conditions
TemperatureC °C DewpointC °C PressurehPa hPa Calm     Humidity % HourlyPrecipMM mm SoftwareType W/m2
00:10 11.8 °C 4.7 °C 1014.4 hPa Calm     62 % 0.0 mm open2300-1.11 W/m2
01:11 12.4 °C 4.9 °C 1014.4 hPa North 8 km/h 8 km/h 60 % 0.0 mm open2300-1.11 W/m2
02:10 12.9 °C 5.3 °C 1014.4 hPa Calm   30.1 km/h 60 % 0.0 mm open2300-1.11 W/m2
03:11 12.8 °C 5.4 °C 1014.1 hPa North 10.9 km/h 12.2 km/h 61 % 0.0 mm open2300-1.11 W/m2
05:11 12.1 °C 5.3 °C 1013.4 hPa ESE 5.6 km/h 5.6 km/h 63 % 0.0 mm open2300-1.11 W/m2
06:10 12.5 °C 5.4 °C 1012.8 hPa NW 44.6 km/h 44.6 km/h 62 % 0.0 mm open2300-1.11 W/m2
07:11 12.5 °C 5.6 °C 1013.1 hPa NW 25.4 km/h 56.6 km/h 63 % 0.0 mm open2300-1.11 W/m2
08:10 12.3 °C 5.2 °C 1013.4 hPa NNW 25.4 km/h 43.5 km/h 62 % 0.0 mm open2300-1.11 W/m2
09:11 12.9 °C 5.3 °C 1013.8 hPa NNW 29 km/h 43.5 km/h 60 % 0.0 mm open2300-1.11 W/m2
10:10 13.9 °C 5.5 °C 1013.8 hPa North 27.7 km/h 27.7 km/h 57 % 0.0 mm open2300-1.11 W/m2
11:11 14.4 °C 5.2 °C 1013.8 hPa NNW 57.3 km/h 57.3 km/h 54 % 0.0 mm open2300-1.11 W/m2
12:10 15.6 °C 5.2 °C 1013.8 hPa NNW 17.4 km/h 45.4 km/h 50 % 0.0 mm open2300-1.11 W/m2
13:11 15.8 °C 4.8 °C 1013.4 hPa Calm   23.8 km/h 48 % 0.0 mm open2300-1.11 W/m2
14:10 16.9 °C 4.8 °C 1013.1 hPa NNE 20.9 km/h 50.5 km/h 45 % 0.0 mm open2300-1.11 W/m2
15:11 17.2 °C 5.4 °C 1012.8 hPa NNW 15.6 km/h 54.4 km/h 46 % 0.0 mm open2300-1.11 W/m2
16:10 16.9 °C 6.4 °C 1013.4 hPa North 22 km/h 30.1 km/h 50 % 0.0 mm open2300-1.11 W/m2
17:11 15.9 °C 6.3 °C 1013.4 hPa North 14.5 km/h 19.2 km/h 53 % 0.0 mm open2300-1.11 W/m2
18:10 15.4 °C 6.4 °C 1013.4 hPa NNW 20.9 km/h 21.6 km/h 55 % 0.0 mm open2300-1.11 W/m2
19:11 14.9 °C 6.4 °C 1013.4 hPa NNW 20.9 km/h 20.9 km/h 57 % 0.0 mm open2300-1.11 W/m2
20:10 15.0 °C 6.5 °C 1013.1 hPa NNW 38.3 km/h 38.3 km/h 57 % 0.0 mm open2300-1.11 W/m2
21:11 14.8 °C 6.6 °C 1012.8 hPa Calm   16.9 km/h 58 % 0.0 mm open2300-1.11 W/m2
22:10 15.2 °C 6.7 °C 1012.1 hPa WNW 33.2 km/h 33.2 km/h 57 % 0.0 mm open2300-1.11 W/m2
23:11 15.6 °C 7.1 °C 1011.7 hPa NNE 21.6 km/h 37 km/h 57 % 0.0 mm open2300-1.11 W/m2
Observations météo à CASSIS
WU-History script by Weather Underground - 1 mb